Elizabethtown, Ohio
Current Conditions -  °F | °C
As of 8:52 AM on Sunday 23 Nov 2014 (Local Time) from KCVG Reporting Station
Overcast Overcast  
Wind Chill: 51°   Ceiling: 5000
Heat Index: 51°   Visibility: 10mi
Dew Point: 39°   Wind: 8mph
Humidity: 63%   Direction: 130°SE
Pressure: 29.97"   Gusts: NA
Location:  39.145°N, 84.7527°W
Report Text: KCVG 231352Z 13007KT 10SM SCT040 BKN050 OVC065 11/04 A2997 RMK AO2 SLP146 T01060039
Loading
Personal Weather Stations






























Interactive Weather Map New forecast layout! Learn more

10-Day Weather Forecast

Advertisements
Track Severe Weather on mobile